Time;durP1;ratioP1;P1;durP2;ratioP2;P2;SDS_P1;SDS_P2;PMS_P1;PMS_P2;Temp;Humidity;BMP_temperature;BMP_pressure;BME280_temperature;BME280_humidity;BME280_pressure;Samples;Min_cycle;Max_cycle;Signal;HPM_P1;HPM_P2
2022/11/13 00:01:28;;;;;;;28.27;19.58;;;6.30;99.90;;;;;;5016956;28;20144;-41
2022/11/13 00:03:54;;;;;;;26.98;17.33;;;6.20;99.90;;;;;;5007807;28;20157;-41
2022/11/13 00:06:21;;;;;;;28.42;17.98;;;6.30;99.90;;;;;;4976426;28;20508;-40
2022/11/13 00:08:48;;;;;;;20.63;15.27;;;6.20;99.90;;;;;;5055419;28;20134;-41
2022/11/13 00:11:17;;;;;;;23.10;15.05;;;6.20;99.90;;;;;;5042433;28;20068;-41
2022/11/13 00:13:44;;;;;;;23.80;16.98;;;6.30;99.90;;;;;;5052395;28;20764;-40
2022/11/13 00:16:11;;;;;;;24.92;16.13;;;6.20;99.90;;;;;;5048947;28;20135;-42
2022/11/13 00:18:39;;;;;;;24.17;16.38;;;6.30;99.90;;;;;;5050536;28;20068;-38
2022/11/13 00:21:08;;;;;;;25.55;16.63;;;6.30;99.90;;;;;;5051317;28;20512;-43
2022/11/13 00:23:35;;;;;;;21.05;15.60;;;6.30;99.90;;;;;;5052243;28;20099;-42
2022/11/13 00:26:06;;;;;;;26.92;18.70;;;6.30;99.90;;;;;;5052477;28;20056;-40
2022/11/13 00:28:33;;;;;;;29.00;17.90;;;6.30;99.90;;;;;;5052550;28;20045;-40
2022/11/13 00:31:00;;;;;;;23.42;16.70;;;6.30;99.90;;;;;;5051286;28;20108;-41
2022/11/13 00:33:27;;;;;;;26.98;17.27;;;6.40;99.90;;;;;;5045948;28;20048;-41
2022/11/13 00:36:01;;;;;;;18.98;14.80;;;6.30;99.90;;;;;;5035507;28;20140;-40
2022/11/13 00:38:27;;;;;;;18.60;14.27;;;6.40;99.90;;;;;;5047467;28;20081;-40
2022/11/13 00:40:54;;;;;;;25.38;16.92;;;6.40;99.90;;;;;;5045809;28;20140;-41
2022/11/13 00:43:21;;;;;;;24.65;15.57;;;6.40;99.90;;;;;;5039342;28;20076;-41
2022/11/13 00:45:48;;;;;;;21.98;13.93;;;6.40;99.90;;;;;;5044030;28;20107;-40
2022/11/13 00:48:14;;;;;;;19.75;13.68;;;6.40;99.90;;;;;;5051191;28;20080;-41
2022/11/13 00:50:41;;;;;;;20.45;14.85;;;6.30;99.90;;;;;;5048767;28;20081;-38
2022/11/13 00:53:09;;;;;;;19.23;14.40;;;6.40;99.90;;;;;;5039844;28;20136;-39
2022/11/13 00:55:36;;;;;;;21.20;15.63;;;6.30;99.90;;;;;;5043200;28;20518;-41
2022/11/13 00:58:03;;;;;;;23.58;16.45;;;6.40;99.90;;;;;;5035355;28;20091;-39
2022/11/13 01:00:30;;;;;;;22.13;14.95;;;6.40;99.90;;;;;;5050142;28;20506;-39
2022/11/13 01:02:58;;;;;;;21.35;15.05;;;6.40;99.90;;;;;;5052857;28;20140;-41
2022/11/13 01:05:24;;;;;;;19.02;13.25;;;6.30;99.90;;;;;;5052063;28;20134;-41
2022/11/13 01:07:51;;;;;;;23.02;13.75;;;6.40;99.90;;;;;;5048302;28;20338;-41
2022/11/13 01:10:19;;;;;;;18.13;13.77;;;6.40;99.90;;;;;;5043051;28;20146;-41
2022/11/13 01:12:46;;;;;;;25.98;16.02;;;6.30;99.90;;;;;;5046678;28;20144;-41
2022/11/13 01:15:13;;;;;;;18.95;12.65;;;6.30;99.90;;;;;;5054910;28;20144;-41
2022/11/13 01:17:40;;;;;;;19.73;13.95;;;6.40;99.90;;;;;;5052077;28;20048;-41
2022/11/13 01:20:08;;;;;;;23.60;16.42;;;6.30;99.90;;;;;;5047110;28;20110;-40
2022/11/13 01:22:34;;;;;;;18.67;13.48;;;6.30;99.90;;;;;;5053772;28;20144;-42
2022/11/13 01:25:01;;;;;;;18.90;13.73;;;6.30;99.90;;;;;;5054768;28;20072;-40
2022/11/13 01:27:29;;;;;;;17.95;14.13;;;6.30;99.90;;;;;;5037743;28;20136;-39
2022/11/13 01:29:56;;;;;;;19.80;13.23;;;6.30;99.90;;;;;;5035392;28;20128;-41
2022/11/13 01:32:23;;;;;;;21.60;15.70;;;6.40;99.90;;;;;;5046627;28;20088;-41
2022/11/13 01:34:50;;;;;;;21.17;15.18;;;6.30;99.90;;;;;;5054953;28;20092;-42
2022/11/13 01:37:16;;;;;;;22.88;15.43;;;6.30;99.90;;;;;;5053214;28;20084;-41
2022/11/13 01:39:43;;;;;;;17.70;12.82;;;6.30;99.90;;;;;;5045212;28;20445;-41
2022/11/13 01:42:10;;;;;;;19.02;13.35;;;6.30;99.90;;;;;;5048328;28;20532;-41
2022/11/13 01:44:49;;;;;;;18.10;13.65;;;6.40;99.90;;;;;;5049334;28;20544;-41
2022/11/13 01:47:16;;;;;;;23.13;14.48;;;6.40;99.90;;;;;;5053664;28;20431;-41
2022/11/13 01:49:42;;;;;;;25.23;16.33;;;6.40;99.90;;;;;;5049117;28;20084;-41
2022/11/13 01:52:11;;;;;;;17.75;13.35;;;6.40;99.90;;;;;;5047293;28;20168;-40
2022/11/13 01:54:38;;;;;;;23.98;14.38;;;6.40;99.90;;;;;;5049912;28;20154;-40
2022/11/13 01:57:05;;;;;;;22.58;15.52;;;6.40;99.90;;;;;;5047182;28;20152;-41
2022/11/13 01:59:34;;;;;;;23.73;14.68;;;6.40;99.90;;;;;;5037618;28;20128;-41
2022/11/13 02:02:02;;;;;;;23.98;15.70;;;6.40;99.90;;;;;;5048396;28;20139;-40
2022/11/13 02:04:29;;;;;;;19.70;14.93;;;6.40;99.90;;;;;;5049138;28;20472;-41
2022/11/13 02:06:56;;;;;;;23.17;15.68;;;6.40;99.90;;;;;;5052627;28;20566;-41
2022/11/13 02:09:26;;;;;;;22.17;14.82;;;6.40;99.90;;;;;;5044916;28;20099;-41
2022/11/13 02:11:53;;;;;;;22.45;15.63;;;6.40;99.90;;;;;;5046313;28;20123;-42
2022/11/13 02:14:20;;;;;;;19.23;14.93;;;6.40;99.90;;;;;;5034807;28;20136;-39
2022/11/13 02:16:48;;;;;;;25.88;16.23;;;6.40;99.90;;;;;;5045325;28;20446;-42
2022/11/13 02:19:19;;;;;;;21.52;14.77;;;6.40;99.90;;;;;;5049875;28;20128;-41
2022/11/13 02:21:50;;;;;;;25.20;16.60;;;6.40;99.90;;;;;;5045146;28;20089;-42
2022/11/13 02:24:23;;;;;;;21.75;15.30;;;6.40;99.90;;;;;;5038167;28;20307;-42
2022/11/13 02:26:50;;;;;;;27.25;16.45;;;6.40;99.90;;;;;;5052508;28;20138;-42
2022/11/13 02:29:17;;;;;;;22.27;15.82;;;6.40;99.90;;;;;;5042069;28;20073;-41
2022/11/13 02:31:43;;;;;;;21.63;16.13;;;6.40;99.90;;;;;;5052187;28;20085;-40
2022/11/13 02:34:10;;;;;;;23.08;16.20;;;6.40;99.90;;;;;;5050397;28;20100;-40
2022/11/13 02:36:37;;;;;;;23.17;17.08;;;6.40;99.90;;;;;;5048492;28;20168;-41
2022/11/13 02:39:05;;;;;;;20.73;14.63;;;6.40;99.90;;;;;;5043605;28;20051;-41
2022/11/13 02:41:33;;;;;;;23.80;16.40;;;6.40;99.90;;;;;;5049738;28;20053;-41
2022/11/13 02:44:00;;;;;;;22.73;16.83;;;6.40;99.90;;;;;;5046154;28;20124;-40
2022/11/13 02:46:27;;;;;;;21.42;14.07;;;6.30;99.90;;;;;;5040934;28;20099;-40
2022/11/13 02:48:53;;;;;;;23.23;14.32;;;6.40;99.90;;;;;;5041208;28;20499;-41
2022/11/13 02:51:20;;;;;;;19.90;14.52;;;6.30;99.90;;;;;;5032619;28;20065;-39
2022/11/13 02:53:47;;;;;;;19.42;13.95;;;6.30;99.90;;;;;;5046121;28;20120;-41
2022/11/13 02:56:14;;;;;;;21.15;14.30;;;6.40;99.90;;;;;;5048524;28;20078;-41
2022/11/13 02:58:42;;;;;;;16.65;12.98;;;6.30;99.90;;;;;;5048302;28;20484;-41
2022/11/13 03:01:09;;;;;;;20.95;13.88;;;6.30;99.90;;;;;;5043599;28;20045;-42
2022/11/13 03:03:35;;;;;;;19.90;14.05;;;6.30;99.90;;;;;;5032534;28;20492;-39
2022/11/13 03:06:14;;;;;;;20.58;12.63;;;6.30;99.90;;;;;;5042978;28;20130;-41
2022/11/13 03:08:41;;;;;;;15.98;12.95;;;6.30;99.90;;;;;;5050675;28;20080;-41
2022/11/13 03:11:09;;;;;;;15.57;12.38;;;6.20;99.90;;;;;;5049623;28;20131;-40
2022/11/13 03:13:35;;;;;;;19.75;13.90;;;6.20;99.90;;;;;;5043002;28;20140;-41
2022/11/13 03:16:08;;;;;;;18.83;13.48;;;6.20;99.90;;;;;;5051839;28;20142;-40
2022/11/13 03:18:35;;;;;;;21.08;15.52;;;6.20;99.90;;;;;;5041478;28;20049;-41
2022/11/13 03:21:06;;;;;;;19.02;14.48;;;6.20;99.90;;;;;;5041086;28;20084;-39
2022/11/13 03:23:33;;;;;;;20.50;14.95;;;6.20;99.90;;;;;;5037284;28;20045;-41
2022/11/13 03:26:03;;;;;;;22.95;15.50;;;6.20;99.90;;;;;;5050447;28;20088;-42
2022/11/13 03:28:30;;;;;;;17.98;13.77;;;6.10;99.90;;;;;;5047181;28;20455;-40
2022/11/13 03:30:56;;;;;;;19.98;13.43;;;6.10;99.90;;;;;;5048426;28;20088;-40
2022/11/13 03:33:25;;;;;;;17.67;13.90;;;6.10;99.90;;;;;;5041870;28;20132;-41
2022/11/13 03:35:51;;;;;;;19.75;15.45;;;6.10;99.90;;;;;;5049862;28;20139;-41
2022/11/13 03:38:18;;;;;;;20.02;13.73;;;6.10;99.90;;;;;;5045178;28;20162;-41
2022/11/13 03:40:45;;;;;;;20.83;14.63;;;6.10;99.90;;;;;;5050550;28;20124;-41
2022/11/13 03:43:12;;;;;;;20.48;14.43;;;5.90;99.90;;;;;;5044745;28;20073;-41
2022/11/13 03:45:38;;;;;;;19.00;14.38;;;6.00;99.90;;;;;;5041263;28;20494;-42
2022/11/13 03:48:06;;;;;;;23.25;16.70;;;6.00;99.90;;;;;;5037678;28;20103;-42
2022/11/13 03:50:34;;;;;;;22.50;15.43;;;6.00;99.90;;;;;;5049205;28;20513;-41
2022/11/13 03:53:01;;;;;;;20.92;13.35;;;6.00;99.90;;;;;;5047061;28;20571;-40
2022/11/13 03:55:27;;;;;;;21.77;15.02;;;6.00;99.90;;;;;;5039381;28;20144;-40
2022/11/13 03:57:54;;;;;;;24.33;15.70;;;6.00;99.90;;;;;;5042760;28;20119;-41
2022/11/13 04:00:21;;;;;;;23.73;17.20;;;6.00;99.90;;;;;;5039747;28;20049;-40
2022/11/13 04:02:48;;;;;;;22.63;15.63;;;6.00;99.90;;;;;;5040193;28;20149;-41
2022/11/13 04:05:15;;;;;;;20.15;13.07;;;5.90;99.90;;;;;;5049546;28;20483;-40
2022/11/13 04:07:43;;;;;;;18.60;13.85;;;5.90;99.90;;;;;;5043655;28;20072;-41
2022/11/13 04:10:10;;;;;;;24.73;17.15;;;5.90;99.90;;;;;;5046973;28;20076;-43
2022/11/13 04:12:36;;;;;;;20.83;14.93;;;5.90;99.90;;;;;;5049015;28;20076;-41
2022/11/13 04:15:03;;;;;;;19.58;14.13;;;5.90;99.90;;;;;;5046827;28;20128;-42
2022/11/13 04:17:30;;;;;;;21.00;14.40;;;5.90;99.90;;;;;;5043532;28;20477;-42
2022/11/13 04:19:57;;;;;;;24.45;15.70;;;5.90;99.90;;;;;;5038553;28;20467;-42
2022/11/13 04:22:24;;;;;;;22.75;14.93;;;5.90;99.90;;;;;;5044538;28;20122;-42
2022/11/13 04:24:52;;;;;;;21.00;15.40;;;5.80;99.90;;;;;;5047209;28;20060;-39
2022/11/13 04:27:19;;;;;;;24.35;15.88;;;5.90;99.90;;;;;;5045336;28;20084;-41
2022/11/13 04:29:45;;;;;;;21.88;15.90;;;5.80;99.90;;;;;;5032748;28;20139;-42
2022/11/13 04:32:12;;;;;;;24.58;16.58;;;5.80;99.90;;;;;;5039178;28;20126;-42
2022/11/13 04:34:39;;;;;;;23.15;15.00;;;5.80;99.90;;;;;;5036042;28;20050;-41
2022/11/13 04:37:06;;;;;;;20.65;15.32;;;5.80;99.90;;;;;;5042348;28;20132;-40
2022/11/13 04:39:32;;;;;;;21.38;16.00;;;5.70;99.90;;;;;;5051772;28;20130;-42
2022/11/13 04:44:45;;;;;;;22.90;15.77;;;5.70;99.90;;;;;;5053993;28;20072;-42
2022/11/13 04:47:12;;;;;;;20.88;14.20;;;5.70;99.90;;;;;;5037993;28;20076;-42
2022/11/13 04:49:38;;;;;;;19.60;15.77;;;5.60;99.90;;;;;;5047603;28;20091;-42
2022/11/13 04:52:05;;;;;;;17.27;13.65;;;5.60;99.90;;;;;;5051538;28;20108;-41
2022/11/13 04:54:32;;;;;;;18.13;13.07;;;5.60;99.90;;;;;;5045921;28;20489;-42
2022/11/13 04:57:00;;;;;;;22.85;16.13;;;5.60;99.90;;;;;;5042006;28;20471;-41
2022/11/13 04:59:27;;;;;;;18.60;14.05;;;5.60;99.90;;;;;;5049074;28;20088;-41
2022/11/13 05:01:54;;;;;;;18.52;13.20;;;5.60;99.90;;;;;;5050373;28;20044;-42
2022/11/13 05:04:21;;;;;;;18.00;12.82;;;5.60;99.90;;;;;;5052781;28;20041;-41
2022/11/13 05:06:48;;;;;;;18.55;14.05;;;5.60;99.90;;;;;;5054242;28;20132;-42
2022/11/13 05:09:15;;;;;;;20.42;15.57;;;5.60;99.90;;;;;;5055296;28;20134;-42
2022/11/13 05:11:42;;;;;;;22.95;14.75;;;5.60;99.90;;;;;;5051165;28;20124;-40
2022/11/13 05:14:12;;;;;;;19.77;14.13;;;5.60;99.90;;;;;;5052323;28;20049;-42
2022/11/13 05:16:39;;;;;;;19.60;13.93;;;5.60;99.90;;;;;;5042593;28;20072;-41
2022/11/13 05:19:06;;;;;;;20.88;15.43;;;5.60;99.90;;;;;;5049936;28;21285;-42
2022/11/13 05:21:33;;;;;;;22.95;15.20;;;5.50;99.90;;;;;;5047490;28;20048;-41
2022/11/13 05:23:59;;;;;;;20.02;15.10;;;5.60;99.90;;;;;;5044564;28;20500;-41
2022/11/13 05:26:26;;;;;;;22.95;17.67;;;5.60;99.90;;;;;;5051972;28;20049;-42
2022/11/13 05:28:53;;;;;;;22.27;16.63;;;5.60;99.90;;;;;;5052677;28;20480;-41
2022/11/13 05:31:21;;;;;;;23.70;16.25;;;5.50;99.90;;;;;;5044875;28;20088;-41
2022/11/13 05:33:48;;;;;;;20.15;13.65;;;5.60;99.90;;;;;;5043980;28;20459;-41
2022/11/13 05:36:15;;;;;;;23.20;17.05;;;5.60;99.90;;;;;;5047452;28;20114;-44
2022/11/13 05:38:42;;;;;;;23.52;17.27;;;5.60;99.90;;;;;;5041816;28;20110;-44
2022/11/13 05:41:10;;;;;;;22.17;17.52;;;5.60;99.90;;;;;;5045789;28;20505;-41
2022/11/13 05:43:37;;;;;;;22.52;15.82;;;5.60;99.90;;;;;;5052802;28;20128;-42
2022/11/13 05:46:04;;;;;;;20.45;15.73;;;5.50;99.90;;;;;;5050471;28;20475;-40
2022/11/13 05:48:33;;;;;;;25.52;17.65;;;5.60;99.90;;;;;;5050370;28;20496;-39
2022/11/13 05:51:03;;;;;;;27.70;19.40;;;5.60;99.90;;;;;;5045723;28;20096;-42
2022/11/13 05:53:30;;;;;;;26.98;18.63;;;5.50;99.90;;;;;;5050688;28;20111;-41
2022/11/13 05:56:00;;;;;;;31.42;20.10;;;5.60;99.90;;;;;;5039883;28;20140;-43
2022/11/13 05:58:27;;;;;;;28.90;19.13;;;5.60;99.90;;;;;;5052813;28;20056;-43
2022/11/13 06:00:54;;;;;;;26.52;19.25;;;5.60;99.90;;;;;;5052806;28;20441;-42
2022/11/13 06:03:21;;;;;;;28.23;19.27;;;5.60;99.90;;;;;;5042405;28;20080;-40
2022/11/13 06:05:49;;;;;;;30.10;21.65;;;5.50;99.90;;;;;;5041710;28;20139;-41
2022/11/13 06:08:15;;;;;;;25.98;18.95;;;5.60;99.90;;;;;;5051714;28;20463;-42
2022/11/13 06:10:42;;;;;;;25.75;18.20;;;5.60;99.90;;;;;;5046610;28;20467;-41
2022/11/13 06:13:09;;;;;;;23.90;14.85;;;5.60;99.90;;;;;;5034048;28;20089;-41
2022/11/13 06:15:36;;;;;;;22.00;15.70;;;5.50;99.90;;;;;;5041411;28;20135;-41
2022/11/13 06:18:03;;;;;;;21.40;15.10;;;5.50;99.90;;;;;;5045879;28;20554;-42
2022/11/13 06:20:29;;;;;;;20.70;14.60;;;5.50;99.90;;;;;;5052601;28;20124;-41
2022/11/13 06:22:58;;;;;;;21.90;15.32;;;5.40;99.90;;;;;;5053160;28;20084;-42
2022/11/13 06:25:24;;;;;;;21.60;14.93;;;5.40;99.90;;;;;;5049119;28;20132;-42
2022/11/13 06:27:52;;;;;;;24.48;16.67;;;5.40;99.90;;;;;;5050316;28;20106;-42
2022/11/13 06:30:19;;;;;;;19.05;14.13;;;5.40;99.90;;;;;;5046532;28;20080;-40
2022/11/13 06:32:51;;;;;;;30.63;18.33;;;5.40;99.90;;;;;;5047971;28;20103;-42
2022/11/13 06:35:17;;;;;;;;;;;5.30;99.90;;;;;;5049679;28;20132;-41
2022/11/13 06:37:44;;;;;;;19.35;14.13;;;5.30;99.90;;;;;;5051765;28;20008;-40
2022/11/13 06:40:13;;;;;;;24.27;15.27;;;5.30;99.90;;;;;;5050036;28;20147;-41
2022/11/13 06:42:40;;;;;;;19.65;15.15;;;5.30;99.90;;;;;;5052828;28;20049;-41
2022/11/13 06:45:11;;;;;;;24.55;16.45;;;5.20;99.90;;;;;;5048985;28;20130;-41
2022/11/13 06:47:37;;;;;;;21.92;15.73;;;5.20;99.90;;;;;;5050827;28;20124;-41
2022/11/13 06:50:05;;;;;;;22.20;16.17;;;5.20;99.90;;;;;;5051188;28;20080;-42
2022/11/13 06:52:32;;;;;;;24.58;17.33;;;5.20;99.90;;;;;;5052042;28;20076;-42
2022/11/13 06:55:00;;;;;;;22.38;16.05;;;5.20;99.90;;;;;;5047727;28;20053;-41
2022/11/13 06:57:28;;;;;;;21.92;15.10;;;5.20;99.90;;;;;;5042614;28;20510;-40
2022/11/13 06:59:55;;;;;;;24.38;18.08;;;5.20;99.90;;;;;;5051657;28;20451;-39
2022/11/13 07:02:22;;;;;;;18.23;14.45;;;5.10;99.90;;;;;;5043001;28;20045;-41
2022/11/13 07:04:49;;;;;;;19.25;13.98;;;5.10;99.90;;;;;;5040224;28;20077;-42
2022/11/13 07:07:15;;;;;;;18.33;14.02;;;5.10;99.90;;;;;;5049363;28;20048;-42
2022/11/13 07:09:42;;;;;;;19.25;14.82;;;5.10;99.90;;;;;;5047830;28;20079;-41
2022/11/13 07:12:09;;;;;;;19.42;14.43;;;5.10;99.90;;;;;;5047757;28;20094;-40
2022/11/13 07:14:37;;;;;;;22.88;16.00;;;5.10;99.90;;;;;;5053136;28;20133;-41
2022/11/13 07:17:04;;;;;;;21.50;14.75;;;5.10;99.90;;;;;;5046424;28;20492;-40
2022/11/13 07:19:31;;;;;;;21.52;16.15;;;5.10;99.90;;;;;;5050968;28;20080;-41
2022/11/13 07:21:57;;;;;;;19.17;15.23;;;5.20;99.90;;;;;;5038021;28;20088;-41
2022/11/13 07:24:24;;;;;;;20.67;15.02;;;5.00;99.90;;;;;;5038220;28;20081;-43
2022/11/13 07:26:51;;;;;;;22.13;14.93;;;5.10;99.90;;;;;;5049313;28;20092;-41
2022/11/13 07:29:18;;;;;;;24.58;16.52;;;5.00;99.90;;;;;;5050465;28;20132;-41
2022/11/13 07:31:46;;;;;;;20.83;15.15;;;5.10;99.90;;;;;;5046058;28;20088;-41
2022/11/13 07:34:14;;;;;;;22.48;16.45;;;5.00;99.90;;;;;;5049065;28;20566;-41
2022/11/13 07:36:40;;;;;;;23.05;16.63;;;5.10;99.90;;;;;;5050602;28;20052;-40
2022/11/13 07:39:07;;;;;;;27.00;17.00;;;5.10;99.90;;;;;;5045663;28;20571;-40
2022/11/13 07:41:34;;;;;;;21.77;16.80;;;5.10;99.90;;;;;;5049860;28;20115;-39
2022/11/13 07:44:01;;;;;;;23.42;17.85;;;5.10;99.90;;;;;;5046275;28;20064;-39
2022/11/13 07:46:28;;;;;;;23.90;15.75;;;5.10;99.90;;;;;;5039654;28;20091;-39
2022/11/13 07:48:56;;;;;;;21.20;16.58;;;5.10;99.90;;;;;;5049818;28;20460;-44
2022/11/13 07:51:22;;;;;;;26.48;18.98;;;5.20;99.90;;;;;;5048541;28;21537;-42
2022/11/13 07:53:49;;;;;;;25.60;16.92;;;5.20;99.90;;;;;;5042811;28;20091;-40
2022/11/13 07:56:16;;;;;;;25.38;17.92;;;5.20;99.90;;;;;;5042827;28;20088;-40
2022/11/13 07:58:43;;;;;;;26.02;18.63;;;5.30;99.90;;;;;;5046314;28;20053;-39
2022/11/13 08:01:10;;;;;;;27.30;19.35;;;5.40;99.90;;;;;;5043959;28;20444;-40
2022/11/13 08:03:36;;;;;;;27.80;19.85;;;5.40;99.90;;;;;;5049371;28;20053;-41
2022/11/13 08:06:06;;;;;;;24.95;18.58;;;5.40;99.90;;;;;;5049503;28;20085;-40
2022/11/13 08:08:33;;;;;;;21.98;16.98;;;5.40;99.90;;;;;;5046238;28;20504;-40
2022/11/13 08:11:03;;;;;;;27.13;17.83;;;5.50;99.90;;;;;;5038366;28;20127;-39
2022/11/13 08:13:30;;;;;;;30.30;19.35;;;5.50;99.90;;;;;;5041646;28;20382;-41
2022/11/13 08:15:59;;;;;;;29.33;18.52;;;5.50;99.90;;;;;;5044314;28;20394;-40
2022/11/13 08:18:26;;;;;;;28.15;18.63;;;5.50;99.90;;;;;;5043927;28;20049;-38
2022/11/13 08:20:53;;;;;;;27.75;17.83;;;5.60;99.90;;;;;;5049853;28;20082;-40
2022/11/13 08:23:21;;;;;;;27.45;18.40;;;5.60;99.90;;;;;;5041131;28;20460;-41
2022/11/13 08:25:48;;;;;;;24.42;17.98;;;5.70;99.90;;;;;;5051994;28;20072;-44
2022/11/13 08:28:15;;;;;;;28.73;19.80;;;5.80;99.90;;;;;;5045900;28;20045;-39
2022/11/13 08:30:43;;;;;;;24.77;17.65;;;5.80;99.90;;;;;;5047091;28;20072;-40
2022/11/13 08:33:10;;;;;;;27.30;19.48;;;5.90;99.90;;;;;;5043517;28;20053;-41
2022/11/13 08:35:36;;;;;;;23.70;17.95;;;5.90;99.90;;;;;;5044791;28;20092;-43
2022/11/13 08:38:03;;;;;;;26.08;18.40;;;6.00;99.90;;;;;;5039581;28;20076;-40
2022/11/13 08:40:32;;;;;;;23.33;17.88;;;6.10;99.90;;;;;;5049437;28;20615;-41
2022/11/13 08:42:59;;;;;;;27.08;18.88;;;6.20;99.90;;;;;;5050354;28;20087;-40
2022/11/13 08:45:26;;;;;;;24.30;17.00;;;6.30;99.90;;;;;;5043804;28;20042;-39
2022/11/13 08:47:52;;;;;;;26.15;18.08;;;6.40;99.90;;;;;;5046640;28;20127;-42
2022/11/13 08:50:19;;;;;;;26.40;17.52;;;6.50;99.90;;;;;;5047567;28;20471;-42
2022/11/13 08:52:46;;;;;;;26.52;18.17;;;6.60;99.90;;;;;;5046636;28;20856;-42
2022/11/13 08:55:13;;;;;;;23.77;17.75;;;6.70;99.90;;;;;;5048385;28;20535;-42
2022/11/13 08:57:41;;;;;;;25.27;18.52;;;6.80;99.90;;;;;;5038687;28;20459;-41
2022/11/13 09:00:09;;;;;;;23.90;16.35;;;6.90;99.90;;;;;;5050659;28;20460;-41
2022/11/13 09:02:35;;;;;;;27.13;17.60;;;7.00;99.90;;;;;;5046927;28;20077;-41
2022/11/13 09:05:02;;;;;;;20.77;15.65;;;7.10;99.90;;;;;;5041477;28;20088;-40
2022/11/13 09:07:29;;;;;;;21.50;15.32;;;7.20;99.90;;;;;;5052457;28;20041;-41
2022/11/13 09:09:56;;;;;;;21.55;15.68;;;7.30;99.90;;;;;;5043987;28;20069;-40
2022/11/13 09:12:22;;;;;;;22.70;16.48;;;7.50;99.90;;;;;;5038777;28;20088;-42
2022/11/13 09:14:51;;;;;;;22.20;15.80;;;7.50;99.90;;;;;;5043877;28;20075;-38
2022/11/13 09:17:17;;;;;;;23.27;15.68;;;7.60;99.90;;;;;;5043704;28;20563;-39
2022/11/13 09:19:44;;;;;;;23.58;15.18;;;7.70;99.90;;;;;;5048802;28;20132;-41
2022/11/13 09:22:11;;;;;;;18.95;14.82;;;7.90;99.90;;;;;;5043124;28;20107;-41
2022/11/13 09:24:38;;;;;;;20.23;14.38;;;7.90;99.90;;;;;;5037809;28;20099;-42
2022/11/13 09:27:04;;;;;;;18.38;13.88;;;8.00;99.90;;;;;;5041497;28;20138;-42
2022/11/13 09:29:31;;;;;;;20.55;14.55;;;8.10;99.90;;;;;;5038177;28;20130;-41
2022/11/13 09:31:59;;;;;;;17.77;13.65;;;8.00;99.90;;;;;;5052796;28;20092;-40
2022/11/13 09:34:26;;;;;;;21.10;14.20;;;8.10;99.90;;;;;;5055189;28;20504;-42
2022/11/13 09:36:53;;;;;;;17.02;13.27;;;8.10;99.90;;;;;;5054543;28;20051;-43
2022/11/13 09:39:20;;;;;;;21.05;13.85;;;8.10;99.90;;;;;;5054264;28;20132;-41
2022/11/13 09:41:49;;;;;;;21.38;14.63;;;8.10;99.90;;;;;;5042083;28;20129;-42
2022/11/13 09:44:17;;;;;;;20.85;13.55;;;8.30;99.90;;;;;;5035147;28;20088;-43
2022/11/13 09:46:46;;;;;;;16.50;13.50;;;8.40;99.90;;;;;;5047648;28;20056;-43
2022/11/13 09:49:18;;;;;;;16.17;13.50;;;8.50;99.90;;;;;;5034265;28;20073;-43
2022/11/13 09:51:49;;;;;;;18.98;13.60;;;8.60;99.90;;;;;;5033655;28;20061;-43
2022/11/13 09:54:16;;;;;;;19.05;12.90;;;8.70;99.90;;;;;;5036319;28;20100;-42
2022/11/13 09:56:45;;;;;;;16.23;12.27;;;8.80;99.90;;;;;;5047492;28;20081;-41
2022/11/13 09:59:18;;;;;;;16.98;11.82;;;8.90;99.90;;;;;;5034820;28;20409;-41
2022/11/13 10:01:49;;;;;;;15.82;11.95;;;8.90;99.90;;;;;;5033438;28;20061;-43
2022/11/13 10:04:24;;;;;;;15.30;11.85;;;9.00;99.90;;;;;;5034616;28;20081;-41
2022/11/13 10:07:05;;;;;;;16.30;12.25;;;9.00;99.90;;;;;;5041583;28;20046;-40
2022/11/13 10:09:36;;;;;;;18.80;11.82;;;9.10;99.90;;;;;;5051834;28;20059;-42
2022/11/13 10:12:06;;;;;;;18.65;12.30;;;9.00;99.90;;;;;;5053453;28;20493;-41
2022/11/13 10:14:35;;;;;;;14.93;11.18;;;9.00;99.90;;;;;;5053351;28;20055;-40
2022/11/13 10:17:05;;;;;;;15.95;12.60;;;9.00;99.90;;;;;;5053370;28;20492;-42
2022/11/13 10:19:37;;;;;;;17.25;12.27;;;8.90;99.90;;;;;;5053149;28;20578;-41
2022/11/13 10:22:05;;;;;;;15.93;12.05;;;9.00;99.90;;;;;;5053163;28;20513;-42
2022/11/13 10:24:36;;;;;;;16.42;12.25;;;9.00;99.90;;;;;;5051725;28;20088;-39
2022/11/13 10:27:07;;;;;;;15.60;12.52;;;9.00;99.90;;;;;;5044867;28;20500;-42
2022/11/13 10:29:34;;;;;;;16.60;12.85;;;9.10;99.90;;;;;;5033276;28;20053;-40
2022/11/13 10:32:14;;;;;;;15.60;11.57;;;9.20;99.90;;;;;;5033139;28;20053;-40
2022/11/13 10:34:43;;;;;;;17.38;12.57;;;9.40;99.90;;;;;;5053980;28;20084;-41
2022/11/13 10:37:18;;;;;;;16.67;11.20;;;9.60;99.90;;;;;;5051129;28;20107;-41
2022/11/13 10:39:45;;;;;;;14.75;11.45;;;9.70;99.90;;;;;;5052920;28;20532;-41
2022/11/13 10:42:22;;;;;;;13.20;10.20;;;9.80;99.90;;;;;;5053075;28;20049;-42
2022/11/13 10:44:53;;;;;;;11.88;9.85;;;10.00;99.90;;;;;;5053952;28;20049;-41
2022/11/13 10:47:22;;;;;;;13.82;10.45;;;10.10;99.90;;;;;;5053811;28;20088;-41
2022/11/13 10:49:50;;;;;;;14.32;10.82;;;10.30;99.90;;;;;;5052634;28;20057;-40
2022/11/13 10:52:18;;;;;;;13.30;10.48;;;10.40;99.90;;;;;;5052429;28;20136;-44
2022/11/13 10:54:45;;;;;;;14.05;10.38;;;10.50;99.90;;;;;;5042477;28;20049;-44
2022/11/13 10:57:22;;;;;;;14.52;10.15;;;10.70;99.90;;;;;;5032379;28;20054;-41
2022/11/13 10:59:49;;;;;;;10.63;9.15;;;10.80;99.90;;;;;;5032733;28;20481;-40
2022/11/13 11:02:17;;;;;;;11.65;9.55;;;10.90;99.90;;;;;;5048959;28;20115;-40
2022/11/13 11:04:44;;;;;;;12.07;9.35;;;11.00;99.90;;;;;;5032231;28;20057;-41
2022/11/13 11:07:14;;;;;;;11.15;9.45;;;11.10;99.90;;;;;;5035135;28;20053;-41
2022/11/13 11:09:43;;;;;;;10.88;8.50;;;11.20;99.90;;;;;;5053238;28;20511;-40
2022/11/13 11:12:18;;;;;;;11.20;8.73;;;11.20;99.90;;;;;;5048121;28;20408;-43
2022/11/13 11:15:04;;;;;;;11.43;8.93;;;11.30;99.90;;;;;;5032007;28;20072;-40
2022/11/13 11:17:38;;;;;;;11.15;9.32;;;11.40;99.90;;;;;;5033278;28;20049;-41
2022/11/13 11:20:07;;;;;;;11.48;8.68;;;11.40;99.90;;;;;;5033292;28;20052;-41
2022/11/13 11:22:36;;;;;;;9.88;8.40;;;11.50;99.90;;;;;;5039689;28;20044;-41
2022/11/13 11:25:06;;;;;;;12.80;8.95;;;11.60;99.90;;;;;;5039416;28;20140;-41
2022/11/13 11:27:34;;;;;;;12.50;9.00;;;11.70;99.90;;;;;;5034450;28;20072;-41
2022/11/13 11:30:04;;;;;;;12.05;8.70;;;11.70;99.90;;;;;;5033182;28;20135;-41
2022/11/13 11:32:32;;;;;;;11.60;8.32;;;11.80;99.90;;;;;;5039218;28;20040;-41
2022/11/13 11:35:01;;;;;;;9.60;7.68;;;11.80;99.90;;;;;;5049092;28;20132;-40
2022/11/13 11:37:30;;;;;;;10.27;7.72;;;11.90;99.90;;;;;;5033290;28;20397;-40
2022/11/13 11:40:01;;;;;;;10.98;7.68;;;12.00;99.90;;;;;;5033242;28;20136;-40
2022/11/13 11:42:30;;;;;;;11.40;8.35;;;12.00;99.90;;;;;;5032031;28;20077;-40
2022/11/13 11:45:02;;;;;;;10.82;7.40;;;12.10;99.90;;;;;;5048105;28;20052;-41
2022/11/13 11:47:29;;;;;;;8.32;7.10;;;12.20;99.90;;;;;;5052307;28;20060;-41
2022/11/13 11:49:56;;;;;;;8.38;7.15;;;12.30;99.90;;;;;;5052719;28;20081;-40
2022/11/13 11:52:52;;;;;;;8.48;6.75;;;12.30;99.90;;;;;;5051682;28;20492;-41
2022/11/13 11:55:31;;;;;;;8.13;6.50;;;12.50;99.90;;;;;;5050735;28;20053;-40
2022/11/13 11:58:01;;;;;;;7.80;6.63;;;12.50;99.90;;;;;;5043352;28;20136;-41
2022/11/13 12:00:29;;;;;;;7.72;6.85;;;12.60;99.90;;;;;;5052696;28;20107;-40
2022/11/13 12:03:05;;;;;;;10.55;7.30;;;12.70;99.90;;;;;;5051184;28;20045;-40
2022/11/13 12:05:37;;;;;;;7.05;6.35;;;12.70;99.90;;;;;;5052022;28;20138;-40
2022/11/13 12:08:10;;;;;;;7.78;6.55;;;12.80;99.90;;;;;;5052501;28;20088;-40
2022/11/13 12:10:42;;;;;;;9.23;7.18;;;12.90;99.90;;;;;;5051859;28;20060;-40
2022/11/13 12:13:20;;;;;;;7.10;6.18;;;12.90;99.90;;;;;;5045849;28;20084;-40
2022/11/13 12:15:49;;;;;;;8.00;6.00;;;12.90;99.90;;;;;;5052450;28;20103;-40
2022/11/13 12:18:24;;;;;;;8.18;7.07;;;13.00;99.90;;;;;;5052114;28;20044;-42
2022/11/13 12:20:56;;;;;;;7.57;6.35;;;13.00;99.90;;;;;;5052374;28;20103;-41
2022/11/13 12:23:34;;;;;;;6.88;6.00;;;13.00;99.90;;;;;;5050887;28;20041;-40
2022/11/13 12:26:03;;;;;;;10.10;6.63;;;13.10;99.90;;;;;;5031575;28;20432;-40
2022/11/13 12:28:33;;;;;;;8.40;6.57;;;13.20;99.90;;;;;;5044936;28;20041;-41
2022/11/13 12:31:05;;;;;;;11.13;6.00;;;13.10;99.90;;;;;;5052357;28;20088;-40
2022/11/13 12:33:37;;;;;;;9.88;5.97;;;13.20;99.90;;;;;;5051858;28;20439;-42
2022/11/13 12:36:04;;;;;;;8.80;6.13;;;13.10;99.90;;;;;;5051504;28;20404;-41
2022/11/13 12:38:35;;;;;;;7.50;5.60;;;13.10;99.90;;;;;;5051423;28;20080;-40
2022/11/13 12:41:08;;;;;;;8.00;5.90;;;13.10;99.90;;;;;;5044781;28;20053;-41
2022/11/13 12:43:52;;;;;;;7.20;6.03;;;13.10;99.90;;;;;;5039822;28;20041;-40
2022/11/13 12:46:18;;;;;;;8.63;6.32;;;13.10;99.90;;;;;;5047207;28;20106;-41